createdAt,value
2024-01-27T12:01:46.822Z,59.20
2024-01-27T12:03:19.198Z,61.00
2024-01-27T12:04:52.273Z,69.00
2024-01-27T12:06:24.916Z,69.00
2024-01-27T12:07:57.433Z,76.50
2024-01-27T12:09:30.618Z,81.75
2024-01-27T12:11:02.911Z,88.00
2024-01-27T12:12:35.456Z,89.00
2024-01-27T12:14:07.761Z,88.50
2024-01-27T12:15:40.364Z,108.80
2024-01-27T12:17:12.742Z,100.20
2024-01-27T12:18:48.052Z,108.20
2024-01-27T12:20:21.860Z,99.20
2024-01-27T12:21:55.583Z,111.00
2024-01-27T12:23:28.375Z,104.00
2024-01-27T12:25:16.821Z,108.40
2024-01-27T12:26:48.990Z,107.20
2024-01-27T12:28:21.852Z,106.80
2024-01-27T12:29:54.157Z,109.20
2024-01-27T12:31:26.553Z,100.40
2024-01-27T12:32:58.952Z,99.60
2024-01-27T12:34:31.739Z,105.80
2024-01-27T12:36:04.306Z,97.20
2024-01-27T12:37:37.036Z,99.50
2024-01-27T12:39:10.180Z,93.50
2024-01-27T12:40:42.611Z,95.40
2024-01-27T12:42:14.914Z,98.60
2024-01-27T12:43:47.302Z,91.50
2024-01-27T12:45:20.049Z,94.00
2024-01-27T12:46:52.435Z,93.75
2024-01-27T12:48:24.748Z,98.25
2024-01-27T12:49:57.961Z,92.75
2024-01-27T12:51:30.618Z,93.25
2024-01-27T12:53:03.197Z,81.75
2024-01-27T12:54:35.651Z,83.00
2024-01-27T12:56:07.918Z,88.25
2024-01-27T12:57:41.305Z,84.50
2024-01-27T12:59:15.405Z,85.00
2024-01-27T13:00:47.596Z,84.25
2024-01-27T13:02:20.452Z,90.00
2024-01-27T13:03:53.088Z,81.50
2024-01-27T13:05:25.443Z,77.00
2024-01-27T13:06:58.254Z,77.50
2024-01-27T13:08:30.567Z,75.25
2024-01-27T13:10:02.841Z,72.50
2024-01-27T13:11:35.340Z,70.00
2024-01-27T13:13:07.380Z,68.50
2024-01-27T13:14:39.690Z,66.75
2024-01-27T13:16:11.913Z,57.80
2024-01-27T13:17:44.361Z,62.80
2024-01-27T13:19:16.718Z,59.00
2024-01-27T13:20:49.070Z,61.00
2024-01-27T13:22:25.589Z,62.20
2024-01-27T13:23:58.045Z,61.60
2024-01-27T13:25:30.261Z,57.60
2024-01-27T13:27:02.716Z,62.20
2024-01-27T13:28:35.022Z,61.40
2024-01-27T13:30:08.095Z,51.20
2024-01-27T13:31:40.400Z,64.00
2024-01-27T13:33:12.969Z,65.00
2024-01-27T13:34:45.612Z,71.50
2024-01-27T13:36:18.500Z,68.00
2024-01-27T13:37:50.630Z,64.25
2024-01-27T13:39:23.100Z,69.75
2024-01-27T13:40:55.315Z,77.00
2024-01-27T13:42:27.818Z,74.25
2024-01-27T13:44:00.116Z,73.50
2024-01-27T13:45:33.041Z,77.50
2024-01-27T13:47:06.200Z,78.50
2024-01-27T13:48:38.533Z,70.00
2024-01-27T13:50:12.442Z,78.25
2024-01-27T13:51:44.899Z,72.00
2024-01-27T13:53:22.078Z,76.75
2024-01-27T13:54:55.628Z,77.00
2024-01-27T13:56:35.530Z,75.25
2024-01-27T13:58:08.891Z,73.75
2024-01-27T13:59:42.406Z,74.75
2024-01-27T14:01:15.779Z,104.50
2024-01-27T14:02:48.337Z,102.25
2024-01-27T14:04:21.618Z,99.20
2024-01-27T14:05:54.217Z,86.50
2024-01-27T14:07:26.560Z,97.00
2024-01-27T14:08:58.918Z,109.40
2024-01-27T14:10:31.547Z,129.75
2024-01-27T14:12:03.986Z,102.20
2024-01-27T14:13:37.175Z,101.50
2024-01-27T14:15:11.147Z,85.25
2024-01-27T14:16:45.165Z,93.50
2024-01-27T14:18:22.983Z,79.75
2024-01-27T14:19:55.691Z,72.75
2024-01-27T14:21:29.495Z,72.75
2024-01-27T14:23:01.796Z,75.00
2024-01-27T14:24:35.101Z,75.00
2024-01-27T14:26:09.181Z,69.00
2024-01-27T14:27:41.288Z,74.25
2024-01-27T14:29:13.534Z,77.50
2024-01-27T14:30:45.799Z,83.50
2024-01-27T14:32:18.624Z,82.75
2024-01-27T14:33:51.361Z,92.75
2024-01-27T14:35:23.578Z,83.75
2024-01-27T14:36:56.597Z,83.25
2024-01-27T14:38:28.757Z,80.00
2024-01-27T14:40:00.979Z,81.50
2024-01-27T14:41:33.089Z,84.25
2024-01-27T14:43:10.051Z,85.25
2024-01-27T14:44:43.445Z,89.00
2024-01-27T14:46:15.586Z,88.75
2024-01-27T14:47:47.870Z,89.00
2024-01-27T14:49:20.313Z,87.75
2024-01-27T14:51:00.293Z,84.25
2024-01-27T14:52:33.168Z,95.25
2024-01-27T14:54:05.615Z,95.75
2024-01-27T14:55:37.867Z,99.00
2024-01-27T14:57:10.520Z,99.25
2024-01-27T14:58:42.686Z,89.25
2024-01-27T15:00:16.982Z,98.00
2024-01-27T15:01:51.015Z,100.40
2024-01-27T15:03:24.973Z,106.20
2024-01-27T15:04:57.181Z,91.40
2024-01-27T15:06:29.460Z,86.25
2024-01-27T15:08:01.740Z,98.25
2024-01-27T15:09:33.970Z,95.50
2024-01-27T15:11:06.266Z,84.50
2024-01-27T15:12:38.614Z,98.00
2024-01-27T15:14:10.813Z,96.50
2024-01-27T15:15:43.237Z,94.50
2024-01-27T15:17:15.310Z,94.50
2024-01-27T15:18:47.819Z,98.75
2024-01-27T15:20:20.173Z,93.25
2024-01-27T15:21:52.635Z,91.50
2024-01-27T15:23:26.993Z,94.75
2024-01-27T15:24:59.256Z,93.50
2024-01-27T15:26:32.990Z,92.50
2024-01-27T15:28:05.844Z,91.50
2024-01-27T15:29:38.018Z,104.75
2024-01-27T15:31:10.206Z,95.75
2024-01-27T15:32:42.380Z,84.75
2024-01-27T15:34:15.316Z,79.25
2024-01-27T15:35:47.645Z,90.50
2024-01-27T15:37:19.938Z,87.25
2024-01-27T15:38:52.234Z,83.75
2024-01-27T15:40:27.245Z,81.00
2024-01-27T15:42:03.186Z,80.50
2024-01-27T15:43:36.560Z,81.75
2024-01-27T15:45:09.172Z,80.25
2024-01-27T15:46:41.549Z,79.50
2024-01-27T15:48:14.162Z,78.00
2024-01-27T15:49:47.033Z,81.50
2024-01-27T15:51:19.242Z,80.75
2024-01-27T15:52:51.605Z,85.75
2024-01-27T15:54:24.159Z,82.25
2024-01-27T15:55:56.651Z,84.75
2024-01-27T15:57:28.947Z,87.50
2024-01-27T15:59:03.638Z,99.00
2024-01-27T16:00:36.249Z,99.25
2024-01-27T16:02:08.805Z,107.00
2024-01-27T16:03:41.128Z,100.40
2024-01-27T16:05:13.793Z,98.75
2024-01-27T16:06:45.981Z,104.50
2024-01-27T16:08:18.479Z,99.80
2024-01-27T16:09:51.961Z,106.40
2024-01-27T16:11:24.558Z,99.50
2024-01-27T16:12:56.642Z,81.75
2024-01-27T16:14:29.175Z,109.50
2024-01-27T16:16:01.423Z,107.50
2024-01-27T16:17:33.783Z,93.75
2024-01-27T16:19:06.257Z,98.25
2024-01-27T16:20:38.735Z,98.25
2024-01-27T16:22:11.011Z,88.00
2024-01-27T16:23:43.322Z,92.50
2024-01-27T16:25:15.619Z,95.75
2024-01-27T16:26:47.761Z,88.75
2024-01-27T16:28:20.157Z,80.75
2024-01-27T16:29:52.726Z,91.50
2024-01-27T16:31:24.892Z,81.50
2024-01-27T16:32:57.201Z,81.75
2024-01-27T16:34:29.642Z,81.50
2024-01-27T16:36:02.117Z,67.50
2024-01-27T16:37:34.541Z,78.25
2024-01-27T16:39:08.078Z,87.50
2024-01-27T16:40:40.378Z,78.00
2024-01-27T16:42:13.334Z,78.00
2024-01-27T16:43:45.704Z,80.00
2024-01-27T16:45:18.098Z,77.50
2024-01-27T16:46:50.233Z,79.75
2024-01-27T16:48:22.529Z,77.75
2024-01-27T16:49:55.078Z,80.75
2024-01-27T16:51:27.456Z,72.75
2024-01-27T16:53:00.124Z,80.50
2024-01-27T16:54:33.014Z,80.75
2024-01-27T16:56:05.481Z,81.00
2024-01-27T16:57:38.102Z,81.75
2024-01-27T16:59:10.260Z,79.75
2024-01-27T17:00:42.662Z,86.25
2024-01-27T17:02:14.997Z,84.25
2024-01-27T17:03:47.374Z,101.75
2024-01-27T17:05:19.782Z,83.25
2024-01-27T17:06:52.101Z,82.75
2024-01-27T17:08:24.819Z,86.50
2024-01-27T17:09:57.309Z,74.50
2024-01-27T17:11:29.506Z,86.50
2024-01-27T17:13:01.811Z,77.25
2024-01-27T17:14:34.347Z,80.50
2024-01-27T17:16:06.564Z,76.00
2024-01-27T17:17:38.922Z,78.50
2024-01-27T17:19:11.431Z,79.00
2024-01-27T17:20:45.397Z,79.75
2024-01-27T17:22:18.529Z,80.75
2024-01-27T17:23:50.796Z,112.60
2024-01-27T17:25:23.134Z,115.75
2024-01-27T17:26:55.643Z,967.50
2024-01-27T17:28:28.482Z,1054.50
2024-01-27T17:30:04.932Z,1215.67
2024-01-27T17:31:37.633Z,1096.67
2024-01-27T17:33:10.258Z,801.17
2024-01-27T17:34:44.195Z,549.80
2024-01-27T17:36:17.420Z,485.00
2024-01-27T17:37:50.103Z,439.50
2024-01-27T17:39:22.693Z,452.00
2024-01-27T17:40:55.839Z,455.75
2024-01-27T17:42:28.589Z,356.75
2024-01-27T17:44:01.136Z,339.50
2024-01-27T17:45:33.694Z,350.50
2024-01-27T17:47:06.742Z,256.33
2024-01-27T17:48:41.678Z,244.33
2024-01-27T17:50:14.343Z,234.75
2024-01-27T17:51:49.278Z,226.00
2024-01-27T17:53:21.919Z,209.00
2024-01-27T17:54:54.803Z,174.50
2024-01-27T17:56:27.170Z,152.25
2024-01-27T17:57:59.725Z,156.00
2024-01-27T17:59:31.932Z,150.00
2024-01-27T18:01:04.572Z,106.50
2024-01-27T18:02:38.220Z,105.75
2024-01-27T18:04:10.697Z,111.00
2024-01-27T18:05:50.597Z,93.50
2024-01-27T18:07:23.341Z,98.25
2024-01-27T18:08:56.899Z,105.25
2024-01-27T18:10:29.564Z,96.25
2024-01-27T18:12:02.849Z,94.00
2024-01-27T18:13:35.431Z,110.50
2024-01-27T18:15:08.288Z,103.25
2024-01-27T18:16:41.007Z,82.00
2024-01-27T18:18:15.576Z,87.50
2024-01-27T18:19:49.905Z,105.50
2024-01-27T18:21:22.357Z,92.00
2024-01-27T18:22:55.448Z,91.75
2024-01-27T18:24:28.268Z,92.50
2024-01-27T18:26:00.651Z,86.75
2024-01-27T18:27:33.948Z,100.00
2024-01-27T18:29:06.755Z,110.00
2024-01-27T18:30:39.457Z,114.80
2024-01-27T18:32:13.007Z,102.50
2024-01-27T18:33:47.697Z,84.25
2024-01-27T18:35:20.441Z,91.25
2024-01-27T18:36:53.248Z,87.75
2024-01-27T18:38:26.008Z,83.25
2024-01-27T18:40:02.319Z,91.75
2024-01-27T18:41:37.204Z,83.25
2024-01-27T18:43:09.939Z,79.00
2024-01-27T18:44:43.668Z,81.50
2024-01-27T18:46:16.501Z,79.75
2024-01-27T18:47:49.191Z,77.00
2024-01-27T18:49:21.469Z,77.00
2024-01-27T18:50:54.605Z,79.50
2024-01-27T18:52:30.308Z,82.25
2024-01-27T18:54:03.205Z,82.25
2024-01-27T18:55:39.569Z,86.00
2024-01-27T18:57:12.047Z,78.50
2024-01-27T18:58:44.448Z,83.00
2024-01-27T19:00:19.814Z,81.25
2024-01-27T19:01:52.596Z,83.75
2024-01-27T19:03:25.102Z,77.75
2024-01-27T19:04:59.298Z,86.50
2024-01-27T19:06:33.142Z,82.00
2024-01-27T19:08:06.099Z,90.00
2024-01-27T19:09:39.244Z,83.25
2024-01-27T19:11:12.200Z,80.75
2024-01-27T19:12:45.055Z,87.50
2024-01-27T19:14:17.916Z,83.00
2024-01-27T19:15:54.499Z,82.75
2024-01-27T19:17:26.659Z,80.75
2024-01-27T19:19:00.110Z,80.75
2024-01-27T19:20:33.101Z,78.00
2024-01-27T19:22:06.119Z,88.75
2024-01-27T19:23:38.559Z,80.25
2024-01-27T19:25:11.166Z,81.50
2024-01-27T19:26:45.234Z,84.50
2024-01-27T19:28:17.803Z,77.00
2024-01-27T19:29:49.886Z,77.25
2024-01-27T19:31:22.218Z,69.50
2024-01-27T19:32:54.608Z,74.75
2024-01-27T19:34:32.622Z,77.25
2024-01-27T19:36:05.329Z,84.50
2024-01-27T19:37:38.124Z,81.25
2024-01-27T19:39:12.530Z,85.00
2024-01-27T19:40:55.079Z,92.00
2024-01-27T19:42:35.353Z,91.50
2024-01-27T19:44:07.812Z,89.25
2024-01-27T19:45:39.870Z,92.75
2024-01-27T19:47:12.046Z,94.75
2024-01-27T19:48:44.304Z,87.50
2024-01-27T19:50:17.102Z,86.25
2024-01-27T19:51:49.598Z,86.00
2024-01-27T19:53:21.751Z,95.00
2024-01-27T19:54:54.801Z,83.00
2024-01-27T19:56:27.358Z,85.75
2024-01-27T19:57:59.803Z,83.75
2024-01-27T19:59:31.998Z,91.50
2024-01-27T20:01:04.305Z,91.00
2024-01-27T20:02:37.207Z,87.75
2024-01-27T20:04:09.738Z,98.75
2024-01-27T20:05:42.098Z,88.50
2024-01-27T20:07:14.663Z,100.75
2024-01-27T20:08:47.005Z,98.75
2024-01-27T20:10:19.528Z,95.50
2024-01-27T20:11:51.538Z,89.50
2024-01-27T20:13:23.798Z,86.25
2024-01-27T20:14:56.062Z,93.50
2024-01-27T20:16:28.622Z,79.50
2024-01-27T20:18:01.440Z,79.75
2024-01-27T20:19:34.252Z,77.25
2024-01-27T20:21:06.608Z,79.25
2024-01-27T20:22:39.245Z,78.00
2024-01-27T20:24:13.982Z,81.50
2024-01-27T20:25:46.796Z,76.75
2024-01-27T20:27:19.310Z,75.50
2024-01-27T20:28:51.607Z,78.00
2024-01-27T20:30:24.149Z,83.00
2024-01-27T20:31:57.272Z,83.25
2024-01-27T20:33:37.327Z,83.25
2024-01-27T20:35:17.701Z,88.75
2024-01-27T20:36:50.580Z,92.00
2024-01-27T20:38:23.886Z,91.25
2024-01-27T20:39:55.930Z,91.75
2024-01-27T20:41:28.039Z,104.20
2024-01-27T20:43:01.676Z,122.00
2024-01-27T20:44:33.774Z,100.75
2024-01-27T20:46:08.396Z,84.00
2024-01-27T20:47:40.843Z,76.00
2024-01-27T20:49:13.662Z,76.00
2024-01-27T20:50:45.836Z,78.00
2024-01-27T20:52:19.376Z,76.50
2024-01-27T20:53:52.005Z,79.75
2024-01-27T20:55:24.505Z,74.50
2024-01-27T20:56:57.672Z,78.00
2024-01-27T20:58:30.376Z,77.50
2024-01-27T21:00:02.877Z,78.00
2024-01-27T21:01:39.961Z,75.75
2024-01-27T21:03:12.793Z,78.75
2024-01-27T21:04:45.245Z,96.75
2024-01-27T21:06:17.747Z,97.00
2024-01-27T21:07:50.374Z,89.25
2024-01-27T21:09:22.911Z,91.25
2024-01-27T21:10:55.236Z,89.75
2024-01-27T21:12:28.205Z,88.00
2024-01-27T21:14:00.959Z,99.00
2024-01-27T21:15:33.944Z,85.50
2024-01-27T21:17:06.277Z,93.75
2024-01-27T21:18:38.640Z,102.50
2024-01-27T21:20:12.964Z,108.25
2024-01-27T21:21:45.286Z,106.00
2024-01-27T21:23:18.040Z,108.20
2024-01-27T21:24:50.380Z,108.40
2024-01-27T21:26:22.948Z,99.80
2024-01-27T21:27:55.993Z,115.00
2024-01-27T21:29:28.245Z,147.75
2024-01-27T21:31:00.845Z,114.25
2024-01-27T21:32:33.355Z,132.25
2024-01-27T21:34:05.714Z,103.20
2024-01-27T21:35:37.884Z,87.00
2024-01-27T21:37:10.163Z,78.75
2024-01-27T21:38:42.696Z,79.50
2024-01-27T21:40:16.849Z,76.25
2024-01-27T21:41:52.788Z,80.00
2024-01-27T21:43:25.417Z,85.75
2024-01-27T21:44:58.519Z,80.50
2024-01-27T21:46:30.825Z,84.75
2024-01-27T21:48:07.203Z,88.00
2024-01-27T21:49:40.626Z,88.25
2024-01-27T21:51:13.955Z,95.50
2024-01-27T21:52:46.154Z,101.00
2024-01-27T21:54:18.764Z,89.75
2024-01-27T21:55:51.086Z,100.75
2024-01-27T21:57:23.600Z,99.75
2024-01-27T21:58:56.299Z,91.50
2024-01-27T22:00:29.256Z,92.00
2024-01-27T22:02:02.126Z,107.60
2024-01-27T22:03:38.791Z,109.80
2024-01-27T22:05:12.193Z,107.80
2024-01-27T22:06:44.308Z,107.60
2024-01-27T22:08:16.357Z,108.20
2024-01-27T22:09:48.393Z,118.25
2024-01-27T22:11:20.506Z,111.00
2024-01-27T22:12:53.036Z,109.40
2024-01-27T22:14:25.296Z,116.20
2024-01-27T22:15:57.863Z,109.40
2024-01-27T22:17:30.458Z,111.00
2024-01-27T22:19:02.557Z,112.00
2024-01-27T22:20:34.992Z,103.40
2024-01-27T22:22:07.239Z,109.40
2024-01-27T22:23:41.240Z,106.00
2024-01-27T22:25:13.306Z,95.00
2024-01-27T22:26:45.410Z,109.40
2024-01-27T22:28:17.579Z,103.80
2024-01-27T22:29:49.603Z,97.60
2024-01-27T22:31:21.973Z,112.00
2024-01-27T22:32:54.284Z,110.20
2024-01-27T22:34:27.084Z,102.40
2024-01-27T22:36:01.121Z,107.50
2024-01-27T22:37:33.273Z,112.75
2024-01-27T22:39:05.291Z,106.20
2024-01-27T22:40:37.767Z,118.40
2024-01-27T22:42:10.280Z,111.60
2024-01-27T22:43:42.488Z,115.40
2024-01-27T22:45:14.889Z,105.80
2024-01-27T22:46:47.267Z,120.60
2024-01-27T22:48:20.053Z,106.20
2024-01-27T22:49:52.789Z,103.60
2024-01-27T22:51:26.375Z,106.25
2024-01-27T22:52:58.889Z,106.00
2024-01-27T22:54:31.259Z,105.00
2024-01-27T22:56:03.534Z,99.00
2024-01-27T22:57:36.312Z,106.20
2024-01-27T22:59:08.476Z,122.40
2024-01-27T23:00:41.073Z,111.00
2024-01-27T23:02:15.254Z,110.80
2024-01-27T23:03:47.886Z,105.00
2024-01-27T23:05:20.109Z,103.60
2024-01-27T23:06:52.307Z,113.60
2024-01-27T23:08:24.594Z,106.40
2024-01-27T23:09:56.685Z,103.80
2024-01-27T23:11:29.847Z,111.40
2024-01-27T23:13:03.011Z,98.80
2024-01-27T23:14:35.221Z,101.80
2024-01-27T23:16:07.439Z,103.00
2024-01-27T23:17:40.229Z,91.00
2024-01-27T23:19:14.514Z,94.00
2024-01-27T23:20:47.020Z,103.75
2024-01-27T23:22:19.625Z,88.75
2024-01-27T23:23:51.781Z,98.50
2024-01-27T23:25:23.756Z,81.25
2024-01-27T23:26:55.969Z,89.25
2024-01-27T23:28:28.071Z,83.75
2024-01-27T23:30:00.064Z,98.25
2024-01-27T23:31:32.066Z,100.75
2024-01-27T23:33:04.352Z,88.00
2024-01-27T23:34:37.239Z,93.75
